createdAt,value
2023-04-23T00:02:09.850Z,4.1
2023-04-23T00:05:11.837Z,3.6
2023-04-23T00:08:13.763Z,4.1
2023-04-23T00:11:15.731Z,5.2
2023-04-23T00:14:17.681Z,4.6
2023-04-23T00:17:19.671Z,4.8
2023-04-23T00:20:21.590Z,4.3
2023-04-23T00:23:23.547Z,4.8
2023-04-23T00:26:25.529Z,4.2
2023-04-23T00:29:27.485Z,4.4
2023-04-23T00:32:29.449Z,4.1
2023-04-23T00:35:31.443Z,4.9
2023-04-23T00:38:33.354Z,4.9
2023-04-23T00:41:35.346Z,4.4
2023-04-23T00:44:37.288Z,4.4
2023-04-23T00:47:39.288Z,5.3
2023-04-23T00:50:41.205Z,4.9
2023-04-23T00:53:43.161Z,5.1
2023-04-23T00:56:45.218Z,5.5
2023-04-23T00:59:47.059Z,4.8
2023-04-23T01:02:49.126Z,5.6
2023-04-23T01:05:51.013Z,5.3
2023-04-23T01:08:52.943Z,4.7
2023-04-23T01:11:54.910Z,5.2
2023-04-23T01:14:56.851Z,5.7
2023-04-23T01:17:58.865Z,6
2023-04-23T01:21:00.795Z,5.2
2023-04-23T01:24:02.766Z,5.5
2023-04-23T01:27:04.746Z,5.8
2023-04-23T01:30:06.695Z,5.3
2023-04-23T01:33:08.787Z,6.1
2023-04-23T01:36:10.608Z,7.1
2023-04-23T01:39:12.554Z,6.7
2023-04-23T01:42:14.732Z,7.9
2023-04-23T01:45:16.469Z,6.6
2023-04-23T01:48:18.431Z,6.8
2023-04-23T01:51:20.400Z,6.6
2023-04-23T01:54:22.350Z,7.5
2023-04-23T01:57:24.420Z,6.9
2023-04-23T02:00:26.274Z,7.9
2023-04-23T02:03:28.356Z,8
2023-04-23T02:06:30.197Z,8.6
2023-04-23T02:09:32.139Z,10.1
2023-04-23T02:12:34.110Z,8.6
2023-04-23T02:15:36.079Z,9.7
2023-04-23T02:18:38.052Z,9
2023-04-23T02:21:40.016Z,9.9
2023-04-23T02:24:42.263Z,9.1
2023-04-23T02:27:43.935Z,9.7
2023-04-23T02:30:45.888Z,10.1
2023-04-23T02:33:47.845Z,9.7
2023-04-23T02:36:49.821Z,9.5
2023-04-23T02:39:51.760Z,9.3
2023-04-23T02:42:53.737Z,8.6
2023-04-23T02:45:55.674Z,8.5
2023-04-23T02:48:57.624Z,8.6
2023-04-23T02:51:59.614Z,7.8
2023-04-23T02:55:01.545Z,9.4
2023-04-23T02:58:03.524Z,10.3
2023-04-23T03:01:05.527Z,10.1
2023-04-23T03:04:07.532Z,9.7
2023-04-23T03:07:09.393Z,9.9
2023-04-23T03:10:11.369Z,8.9
2023-04-23T03:13:13.359Z,9.3
2023-04-23T03:16:15.329Z,9.2
2023-04-23T03:19:17.233Z,9
2023-04-23T03:22:19.248Z,8.6
2023-04-23T03:25:21.198Z,8.7
2023-04-23T03:28:23.162Z,8.9
2023-04-23T03:31:25.150Z,9
2023-04-23T03:34:27.076Z,7.6
2023-04-23T03:37:29.033Z,7.8
2023-04-23T03:40:30.996Z,8.3
2023-04-23T03:43:32.949Z,7.4
2023-04-23T03:46:34.948Z,8.2
2023-04-23T03:49:36.870Z,7.4
2023-04-23T03:52:38.829Z,8.2
2023-04-23T03:55:40.798Z,7.8
2023-04-23T03:58:42.764Z,7.4
2023-04-23T04:01:44.816Z,8.6
2023-04-23T04:04:47.379Z,8.7
2023-04-23T04:07:48.601Z,8
2023-04-23T04:10:50.601Z,9
2023-04-23T04:13:52.556Z,7.8
2023-04-23T04:16:54.513Z,8.3
2023-04-23T04:19:56.477Z,8
2023-04-23T04:22:58.422Z,7
2023-04-23T04:26:00.409Z,8
2023-04-23T04:29:02.345Z,8.4
2023-04-23T04:32:04.420Z,8.1
2023-04-23T04:35:06.374Z,8
2023-04-23T04:38:08.310Z,8.5
2023-04-23T04:41:10.284Z,8.9
2023-04-23T04:44:12.218Z,7.8
2023-04-23T04:47:14.190Z,8.4
2023-04-23T04:50:16.148Z,7.6
2023-04-23T04:53:18.130Z,7.3
2023-04-23T04:56:20.073Z,8.3
2023-04-23T04:59:22.039Z,8.2
2023-04-23T05:02:24.048Z,7.7
2023-04-23T05:05:25.943Z,7.2
2023-04-23T05:08:27.897Z,8.3
2023-04-23T05:11:29.907Z,7.3
2023-04-23T05:14:31.803Z,7.1
2023-04-23T05:17:33.770Z,7.1
2023-04-23T05:20:35.726Z,8.1
2023-04-23T05:23:37.694Z,6.5
2023-04-23T05:26:39.646Z,6.6
2023-04-23T05:29:41.640Z,7.2
2023-04-23T05:32:43.658Z,7.7
2023-04-23T05:35:45.619Z,7.1
2023-04-23T05:38:47.565Z,6.3
2023-04-23T05:41:49.555Z,6.1
2023-04-23T05:44:51.561Z,5.7
2023-04-23T05:47:53.551Z,5.4
2023-04-23T05:50:55.474Z,6.1
2023-04-23T05:53:57.430Z,6.2
2023-04-23T05:56:59.398Z,6
2023-04-23T06:00:01.397Z,5.1
2023-04-23T06:03:03.503Z,5.3
2023-04-23T06:06:05.325Z,5.6
2023-04-23T06:09:07.284Z,4.9
2023-04-23T06:12:09.387Z,4.9
2023-04-23T06:15:11.243Z,4.4
2023-04-23T06:18:13.275Z,4.2
2023-04-23T06:21:15.152Z,5.1
2023-04-23T06:24:17.116Z,5
2023-04-23T06:27:19.074Z,4.6
2023-04-23T06:30:21.323Z,4.3
2023-04-23T06:33:23.139Z,4.2
2023-04-23T06:36:25.035Z,4.8
2023-04-23T06:39:26.948Z,4.6
2023-04-23T06:42:28.881Z,4.1
2023-04-23T06:45:30.840Z,4.5
2023-04-23T06:48:32.809Z,4.1
2023-04-23T06:51:34.749Z,4.7
2023-04-23T06:54:36.766Z,4
2023-04-23T06:57:38.673Z,3.6
2023-04-23T07:00:40.646Z,4.1
2023-04-23T07:03:44.439Z,4.1
2023-04-23T07:06:44.533Z,3.7
2023-04-23T07:09:46.702Z,3.4
2023-04-23T07:12:48.509Z,3.4
2023-04-23T07:15:50.427Z,3.9
2023-04-23T07:18:52.346Z,4.1
2023-04-23T07:21:54.313Z,3.8
2023-04-23T07:24:56.284Z,4.3
2023-04-23T07:27:58.237Z,4.3
2023-04-23T07:31:00.562Z,3.7
2023-04-23T07:34:02.163Z,3.5
2023-04-23T07:37:04.118Z,3.7
2023-04-23T07:40:06.083Z,3.8
2023-04-23T07:43:08.047Z,3.7
2023-04-23T07:46:10.044Z,3.8
2023-04-23T07:49:12.014Z,4.1
2023-04-23T07:52:13.982Z,4
2023-04-23T07:55:15.931Z,3.4
2023-04-23T07:58:17.863Z,4.3
2023-04-23T08:01:19.831Z,3.7
2023-04-23T08:04:22.086Z,3.7
2023-04-23T08:07:23.864Z,3.6
2023-04-23T08:10:25.774Z,3.4
2023-04-23T08:13:27.744Z,3.8
2023-04-23T08:16:30.853Z,4.1
2023-04-23T08:19:31.678Z,5.1
2023-04-23T08:22:33.637Z,5
2023-04-23T08:25:35.609Z,4.6
2023-04-23T08:28:37.542Z,4.9
2023-04-23T08:31:39.507Z,5
2023-04-23T08:34:41.508Z,4.9
2023-04-23T08:37:43.496Z,5.3
2023-04-23T08:40:45.455Z,5.8
2023-04-23T08:43:47.537Z,4.6
2023-04-23T08:46:49.422Z,5.2
2023-04-23T08:49:51.344Z,4.6
2023-04-23T08:52:53.273Z,4
2023-04-23T08:55:55.289Z,3.9
2023-04-23T08:58:57.351Z,3.5
2023-04-23T09:01:59.209Z,3.3
2023-04-23T09:05:01.163Z,2.8
2023-04-23T09:08:03.149Z,2.5
2023-04-23T09:11:05.339Z,2.5
2023-04-23T09:14:07.365Z,2.3
2023-04-23T09:17:09.309Z,2.1
2023-04-23T09:20:11.299Z,2.3
2023-04-23T09:23:13.330Z,2.2
2023-04-23T09:26:15.203Z,2
2023-04-23T09:29:17.145Z,2.3
2023-04-23T09:32:19.270Z,2.3
2023-04-23T09:35:21.425Z,2.1
2023-04-23T09:38:23.044Z,1.9
2023-04-23T09:41:25.008Z,2
2023-04-23T09:44:26.994Z,2.1
2023-04-23T09:47:28.964Z,1.9
2023-04-23T09:50:30.912Z,2.1
2023-04-23T09:53:32.887Z,1.7
2023-04-23T09:56:34.840Z,1.6
2023-04-23T09:59:46.589Z,1.3
2023-04-23T10:02:38.786Z,1.9
2023-04-23T10:05:56.068Z,1.6
2023-04-23T10:08:42.708Z,1.6
2023-04-23T10:11:44.668Z,1.6
2023-04-23T10:14:46.614Z,1.5
2023-04-23T10:17:48.682Z,1.5
2023-04-23T10:20:50.510Z,1.6
2023-04-23T10:23:52.530Z,1.7
2023-04-23T10:26:54.458Z,1.5
2023-04-23T10:29:56.421Z,1.7
2023-04-23T10:32:58.456Z,1.7
2023-04-23T10:36:00.414Z,1.5
2023-04-23T10:39:02.308Z,2.2
2023-04-23T10:42:04.280Z,1.8
2023-04-23T10:45:16.703Z,1.7
2023-04-23T10:48:08.230Z,1.5
2023-04-23T10:51:31.712Z,1.6
2023-04-23T10:54:12.119Z,1.7
2023-04-23T10:57:14.106Z,1.4
2023-04-23T11:00:16.091Z,1.4
2023-04-23T11:03:18.169Z,1.4
2023-04-23T11:06:20.039Z,1.3
2023-04-23T11:09:21.999Z,1.5
2023-04-23T11:12:23.949Z,1.8
2023-04-23T11:15:25.916Z,1.5
2023-04-23T11:18:27.930Z,1.5
2023-04-23T11:21:29.870Z,1.5
2023-04-23T11:24:31.837Z,1.6
2023-04-23T11:27:33.789Z,1.5
2023-04-23T11:30:35.777Z,1.5
2023-04-23T11:33:37.712Z,1.6
2023-04-23T11:36:39.699Z,1.7
2023-04-23T11:39:42.144Z,1.6
2023-04-23T11:42:43.624Z,1.5
2023-04-23T11:45:45.596Z,1.4
2023-04-23T11:48:47.558Z,1.5
2023-04-23T11:51:49.569Z,1.7
2023-04-23T11:54:51.538Z,1.5
2023-04-23T11:57:53.522Z,1.3
2023-04-23T12:00:55.754Z,1.5
2023-04-23T12:03:57.570Z,1.4
2023-04-23T12:06:59.416Z,1.3
2023-04-23T12:10:01.348Z,1.7
2023-04-23T12:13:03.313Z,1.7
2023-04-23T12:16:05.302Z,1.7
2023-04-23T12:19:07.246Z,1.8
2023-04-23T12:22:09.190Z,1.7
2023-04-23T12:25:11.150Z,1.8
2023-04-23T12:28:13.155Z,2
2023-04-23T12:31:15.126Z,1.7
2023-04-23T12:34:17.108Z,2
2023-04-23T12:37:19.028Z,2
2023-04-23T12:40:20.994Z,2.1
2023-04-23T12:43:22.971Z,1.9
2023-04-23T12:46:24.934Z,1.8
2023-04-23T12:49:26.936Z,1.5
2023-04-23T12:52:28.844Z,1.9
2023-04-23T12:55:30.843Z,1.6
2023-04-23T12:58:32.802Z,1.7
2023-04-23T13:01:34.762Z,1.7
2023-04-23T13:04:36.747Z,1.8
2023-04-23T13:07:38.695Z,1.7
2023-04-23T13:10:40.664Z,1.3
2023-04-23T13:13:42.615Z,1.6
2023-04-23T13:16:44.661Z,1.7
2023-04-23T13:19:46.548Z,1.6
2023-04-23T13:22:48.506Z,1.2
2023-04-23T13:25:50.474Z,1.2
2023-04-23T13:28:52.418Z,1
2023-04-23T13:31:54.468Z,0.9
2023-04-23T13:34:56.450Z,1.3
2023-04-23T13:37:58.363Z,1
2023-04-23T13:41:00.367Z,1
2023-04-23T13:44:02.360Z,1
2023-04-23T13:47:04.280Z,0.9
2023-04-23T13:50:06.242Z,0.9
2023-04-23T13:53:08.197Z,0.9
2023-04-23T14:02:14.074Z,0.9
2023-04-23T14:05:16.026Z,1
2023-04-23T14:08:18.146Z,0.7
2023-04-23T14:11:19.972Z,1
2023-04-23T14:14:21.933Z,0.9
2023-04-23T14:17:23.892Z,0.8
2023-04-23T14:20:25.870Z,0.7
2023-04-23T14:23:27.849Z,0.7
2023-04-23T14:26:37.346Z,0.6
2023-04-23T14:29:31.776Z,0.8
2023-04-23T14:32:33.730Z,0.7
2023-04-23T14:35:42.995Z,0.6
2023-04-23T14:38:37.656Z,0.6
2023-04-23T14:41:39.635Z,0.8
2023-04-23T14:44:41.576Z,0.8
2023-04-23T14:47:43.579Z,1
2023-04-23T14:50:45.528Z,0.8
2023-04-23T14:53:47.502Z,1.2
2023-04-23T14:56:49.475Z,0.8
2023-04-23T14:59:51.436Z,0.7
2023-04-23T15:02:53.512Z,0.7
2023-04-23T15:05:55.411Z,0.5
2023-04-23T15:08:57.377Z,0.8
2023-04-23T15:11:59.334Z,0.6
2023-04-23T15:15:01.306Z,0.7
2023-04-23T15:18:03.304Z,0.8
2023-04-23T15:21:05.297Z,0.8
2023-04-23T15:24:07.286Z,0.7
2023-04-23T15:27:09.192Z,0.6
2023-04-23T15:30:11.182Z,0.8
2023-04-23T15:33:13.200Z,1.1
2023-04-23T15:36:15.149Z,0.8
2023-04-23T15:39:17.129Z,0.9
2023-04-23T15:42:19.061Z,1
2023-04-23T15:45:21.040Z,0.9
2023-04-23T15:48:23.079Z,0.8
2023-04-23T15:51:24.985Z,0.9
2023-04-23T15:54:27.570Z,1
2023-04-23T15:57:28.905Z,0.8
2023-04-23T16:00:30.938Z,0.9
2023-04-23T16:03:33.041Z,0.7
2023-04-23T16:06:34.805Z,0.6
2023-04-23T16:09:36.775Z,0.7
2023-04-23T16:12:38.758Z,0.7
2023-04-23T16:15:40.704Z,0.6
2023-04-23T16:18:42.734Z,0.8
2023-04-23T16:21:44.643Z,0.8
2023-04-23T16:24:46.607Z,1
2023-04-23T16:27:48.592Z,0.9
2023-04-23T16:30:50.549Z,0.7
2023-04-23T16:33:52.501Z,0.9
2023-04-23T16:36:54.472Z,0.8
2023-04-23T16:39:56.453Z,1.3
2023-04-23T16:42:58.395Z,1.2
2023-04-23T16:46:00.379Z,1.1
2023-04-23T16:49:02.330Z,1.2
2023-04-23T16:52:04.299Z,1.3
2023-04-23T16:55:06.210Z,1.3
2023-04-23T16:58:08.185Z,1.4
2023-04-23T17:01:10.142Z,1.4
2023-04-23T17:04:12.235Z,1.3
2023-04-23T17:07:14.053Z,1.7
2023-04-23T17:10:16.050Z,1.9
2023-04-23T17:13:18.136Z,1.7
2023-04-23T17:16:20.023Z,1.4
2023-04-23T17:19:21.935Z,1.3
2023-04-23T17:22:23.861Z,1.7
2023-04-23T17:25:25.828Z,1.3
2023-04-23T17:28:27.806Z,1.6
2023-04-23T17:31:29.799Z,1.4
2023-04-23T17:34:31.727Z,1.8
2023-04-23T17:37:34.219Z,1.6
2023-04-23T17:40:37.316Z,1.3
2023-04-23T17:43:37.654Z,1.4
2023-04-23T17:46:39.589Z,1.2
2023-04-23T17:49:41.816Z,1.3
2023-04-23T17:52:43.529Z,1.5
2023-04-23T17:55:45.498Z,1.6
2023-04-23T17:58:47.443Z,1.8
2023-04-23T18:01:49.412Z,1.8
2023-04-23T18:04:51.384Z,2
2023-04-23T18:07:53.323Z,2
2023-04-23T18:10:55.337Z,1.5
2023-04-23T18:13:57.249Z,1.3
2023-04-23T18:16:59.221Z,1.2
2023-04-23T18:20:01.154Z,1.1
2023-04-23T18:23:03.170Z,1.2
2023-04-23T18:26:05.125Z,1.2
2023-04-23T18:29:07.074Z,1.1
2023-04-23T18:32:09.276Z,1.2
2023-04-23T18:35:10.995Z,1.3
2023-04-23T18:38:12.939Z,1
2023-04-23T18:41:14.926Z,1.2
2023-04-23T18:44:16.882Z,1.1
2023-04-23T18:47:18.879Z,1.3
2023-04-23T18:50:20.810Z,1.2
2023-04-23T18:53:22.772Z,0.9
2023-04-23T18:56:24.747Z,1.3
2023-04-23T18:59:26.681Z,1.2
2023-04-23T19:02:35.413Z,1.3
2023-04-23T19:05:31.983Z,1
2023-04-23T19:08:32.607Z,1.1
2023-04-23T19:11:34.548Z,1.1
2023-04-23T19:14:36.484Z,1.4
2023-04-23T19:17:38.535Z,1.1
2023-04-23T19:20:40.405Z,1.1
2023-04-23T19:23:42.369Z,1.2
2023-04-23T19:26:44.334Z,1.1
2023-04-23T19:29:46.293Z,0.9
2023-04-23T19:32:48.484Z,1.2
2023-04-23T19:35:50.198Z,1.1
2023-04-23T19:38:52.183Z,1.3
2023-04-23T19:41:56.425Z,1.7
2023-04-23T19:44:56.083Z,1.6
2023-04-23T19:47:58.073Z,1.3
2023-04-23T19:51:00.106Z,1.5
2023-04-23T19:54:01.977Z,1.7
2023-04-23T19:57:03.939Z,1.4
2023-04-23T20:00:05.870Z,1.6
2023-04-23T20:03:07.995Z,1.5
2023-04-23T20:06:09.803Z,1.6
2023-04-23T20:09:11.844Z,1.4
2023-04-23T20:12:13.826Z,1.5
2023-04-23T20:15:15.758Z,1.2
2023-04-23T20:18:17.716Z,1.4
2023-04-23T20:21:19.683Z,1.7
2023-04-23T20:24:21.651Z,1.6
2023-04-23T20:27:23.637Z,1.7
2023-04-23T20:30:25.590Z,1.7
2023-04-23T20:33:27.581Z,1.6
2023-04-23T20:36:29.564Z,1.9
2023-04-23T20:39:31.463Z,1.7
2023-04-23T20:42:33.441Z,1.5
2023-04-23T20:45:35.388Z,1.7
2023-04-23T20:48:37.345Z,1.8
2023-04-23T20:51:39.307Z,1.4
2023-04-23T20:54:41.274Z,1.5
2023-04-23T20:57:43.236Z,1.8
2023-04-23T21:00:45.206Z,1.8
2023-04-23T21:03:47.290Z,1.9
2023-04-23T21:06:49.103Z,1.9
2023-04-23T21:09:51.086Z,1.5
2023-04-23T21:12:53.040Z,1.3
2023-04-23T21:15:54.991Z,1.5
2023-04-23T21:18:56.953Z,1.3
2023-04-23T21:21:58.911Z,1.4
2023-04-23T21:25:00.841Z,1.6
2023-04-23T21:28:02.832Z,1.7
2023-04-23T21:31:04.817Z,1.5
2023-04-23T21:34:06.760Z,1.5
2023-04-23T21:37:08.717Z,1.2
2023-04-23T21:40:10.795Z,1.3
2023-04-23T21:43:12.661Z,1.2
2023-04-23T21:46:14.630Z,1
2023-04-23T21:49:16.599Z,1.2
2023-04-23T21:52:18.700Z,1
2023-04-23T21:55:20.524Z,1.2
2023-04-23T21:58:22.475Z,1.3
2023-04-23T22:01:24.459Z,0.9
2023-04-23T22:04:26.463Z,1.1
2023-04-23T22:07:28.336Z,1.2
2023-04-23T22:10:30.293Z,1
2023-04-23T22:13:32.288Z,0.9
2023-04-23T22:16:34.303Z,1
2023-04-23T22:19:36.183Z,1.4
2023-04-23T22:22:38.180Z,1.1
2023-04-23T22:25:40.129Z,1.1
2023-04-23T22:28:42.109Z,0.9
2023-04-23T22:31:44.068Z,1
2023-04-23T22:34:46.031Z,0.8
2023-04-23T22:37:47.981Z,1
2023-04-23T22:40:49.950Z,1
2023-04-23T22:43:51.913Z,0.8
2023-04-23T22:46:53.866Z,1
2023-04-23T22:49:55.816Z,0.7
2023-04-23T22:52:57.776Z,0.9
2023-04-23T22:55:59.752Z,0.8
2023-04-23T22:59:01.727Z,0.9
2023-04-23T23:02:03.684Z,0.6
2023-04-23T23:05:05.615Z,0.8
2023-04-23T23:08:07.586Z,0.8
2023-04-23T23:11:09.544Z,1
2023-04-23T23:14:11.516Z,0.8
2023-04-23T23:17:13.499Z,0.9
2023-04-23T23:20:15.440Z,0.7
2023-04-23T23:23:17.411Z,0.7
2023-04-23T23:26:19.368Z,0.6
2023-04-23T23:29:21.330Z,0.7
2023-04-23T23:32:23.311Z,0.6
2023-04-23T23:35:25.236Z,0.8
2023-04-23T23:38:27.253Z,0.8
2023-04-23T23:41:29.229Z,0.6
2023-04-23T23:44:31.168Z,0.6
2023-04-23T23:47:33.156Z,0.6
2023-04-23T23:50:35.089Z,0.7
2023-04-23T23:53:37.051Z,0.7
2023-04-23T23:56:38.999Z,0.7
2023-04-23T23:59:41.241Z,0.9
